sensor_id;sensor_type;location;lat;lon;timestamp;P1;durP1;ratioP1;P2;durP2;ratioP2
68803;SDS011;55787;52.678;13.314;2023-12-22T00:01:23;14.90;;;1.45;;
68803;SDS011;55787;52.678;13.314;2023-12-22T00:03:50;6.90;;;0.60;;
68803;SDS011;55787;52.678;13.314;2023-12-22T00:06:16;10.05;;;1.20;;
68803;SDS011;55787;52.678;13.314;2023-12-22T00:08:43;12.70;;;0.80;;
68803;SDS011;55787;52.678;13.314;2023-12-22T00:11:10;6.50;;;0.60;;
68803;SDS011;55787;52.678;13.314;2023-12-22T00:13:36;7.60;;;0.70;;
68803;SDS011;55787;52.678;13.314;2023-12-22T00:16:03;11.30;;;0.75;;
68803;SDS011;55787;52.678;13.314;2023-12-22T00:18:30;5.55;;;0.47;;
68803;SDS011;55787;52.678;13.314;2023-12-22T00:20:57;9.23;;;0.60;;
68803;SDS011;55787;52.678;13.314;2023-12-22T00:23:24;10.27;;;1.08;;
68803;SDS011;55787;52.678;13.314;2023-12-22T00:25:50;9.48;;;0.60;;
68803;SDS011;55787;52.678;13.314;2023-12-22T00:28:17;6.60;;;0.50;;
68803;SDS011;55787;52.678;13.314;2023-12-22T00:30:43;11.63;;;0.88;;
68803;SDS011;55787;52.678;13.314;2023-12-22T00:33:10;10.20;;;0.97;;
68803;SDS011;55787;52.678;13.314;2023-12-22T00:35:37;14.75;;;1.42;;
68803;SDS011;55787;52.678;13.314;2023-12-22T00:38:04;7.80;;;0.77;;
68803;SDS011;55787;52.678;13.314;2023-12-22T00:40:31;10.20;;;0.77;;
68803;SDS011;55787;52.678;13.314;2023-12-22T00:42:57;10.75;;;0.80;;
68803;SDS011;55787;52.678;13.314;2023-12-22T00:45:24;9.33;;;1.40;;
68803;SDS011;55787;52.678;13.314;2023-12-22T00:47:50;9.07;;;1.10;;
68803;SDS011;55787;52.678;13.314;2023-12-22T00:50:18;10.13;;;1.20;;
68803;SDS011;55787;52.678;13.314;2023-12-22T00:52:44;6.90;;;0.60;;
68803;SDS011;55787;52.678;13.314;2023-12-22T00:55:11;7.85;;;0.57;;
68803;SDS011;55787;52.678;13.314;2023-12-22T00:57:38;11.13;;;0.90;;
68803;SDS011;55787;52.678;13.314;2023-12-22T01:00:04;11.13;;;0.98;;
68803;SDS011;55787;52.678;13.314;2023-12-22T01:02:35;8.00;;;0.88;;
68803;SDS011;55787;52.678;13.314;2023-12-22T01:05:01;6.90;;;0.60;;
68803;SDS011;55787;52.678;13.314;2023-12-22T01:07:28;12.73;;;1.10;;
68803;SDS011;55787;52.678;13.314;2023-12-22T01:09:55;9.53;;;0.60;;
68803;SDS011;55787;52.678;13.314;2023-12-22T01:12:22;7.72;;;0.80;;
68803;SDS011;55787;52.678;13.314;2023-12-22T01:14:48;15.02;;;1.35;;
68803;SDS011;55787;52.678;13.314;2023-12-22T01:17:18;9.60;;;0.77;;
68803;SDS011;55787;52.678;13.314;2023-12-22T01:19:44;13.52;;;1.13;;
68803;SDS011;55787;52.678;13.314;2023-12-22T01:22:12;15.07;;;1.53;;
68803;SDS011;55787;52.678;13.314;2023-12-22T01:24:38;16.50;;;1.23;;
68803;SDS011;55787;52.678;13.314;2023-12-22T01:27:09;9.70;;;0.93;;
68803;SDS011;55787;52.678;13.314;2023-12-22T01:29:36;9.95;;;1.25;;
68803;SDS011;55787;52.678;13.314;2023-12-22T01:32:03;9.82;;;0.90;;
68803;SDS011;55787;52.678;13.314;2023-12-22T01:34:30;10.70;;;1.00;;
68803;SDS011;55787;52.678;13.314;2023-12-22T01:36:57;13.07;;;1.15;;
68803;SDS011;55787;52.678;13.314;2023-12-22T01:39:23;6.45;;;1.00;;
68803;SDS011;55787;52.678;13.314;2023-12-22T01:41:50;13.30;;;1.10;;
68803;SDS011;55787;52.678;13.314;2023-12-22T01:44:17;9.40;;;1.17;;
68803;SDS011;55787;52.678;13.314;2023-12-22T01:46:43;11.77;;;1.10;;
68803;SDS011;55787;52.678;13.314;2023-12-22T01:49:10;8.57;;;0.77;;
68803;SDS011;55787;52.678;13.314;2023-12-22T01:51:38;12.40;;;1.00;;
68803;SDS011;55787;52.678;13.314;2023-12-22T01:54:06;10.70;;;0.88;;
68803;SDS011;55787;52.678;13.314;2023-12-22T01:56:33;9.93;;;0.73;;
68803;SDS011;55787;52.678;13.314;2023-12-22T01:59:00;7.37;;;0.83;;
68803;SDS011;55787;52.678;13.314;2023-12-22T02:01:28;16.98;;;1.02;;
68803;SDS011;55787;52.678;13.314;2023-12-22T02:03:55;15.75;;;1.20;;
68803;SDS011;55787;52.678;13.314;2023-12-22T02:06:23;10.30;;;1.35;;
68803;SDS011;55787;52.678;13.314;2023-12-22T02:08:50;8.57;;;0.85;;
68803;SDS011;55787;52.678;13.314;2023-12-22T02:11:16;9.60;;;0.80;;
68803;SDS011;55787;52.678;13.314;2023-12-22T02:13:43;6.57;;;0.57;;
68803;SDS011;55787;52.678;13.314;2023-12-22T02:18:55;14.00;;;0.70;;
68803;SDS011;55787;52.678;13.314;2023-12-22T02:21:23;13.02;;;1.60;;
68803;SDS011;55787;52.678;13.314;2023-12-22T02:23:51;12.87;;;1.10;;
68803;SDS011;55787;52.678;13.314;2023-12-22T02:26:28;9.45;;;0.85;;
68803;SDS011;55787;52.678;13.314;2023-12-22T02:29:02;14.93;;;1.08;;
68803;SDS011;55787;52.678;13.314;2023-12-22T02:31:35;11.20;;;1.02;;
68803;SDS011;55787;52.678;13.314;2023-12-22T02:34:12;12.25;;;1.02;;
68803;SDS011;55787;52.678;13.314;2023-12-22T02:36:44;12.30;;;0.83;;
68803;SDS011;55787;52.678;13.314;2023-12-22T02:39:12;11.77;;;0.98;;
68803;SDS011;55787;52.678;13.314;2023-12-22T02:41:40;11.65;;;0.95;;
68803;SDS011;55787;52.678;13.314;2023-12-22T02:44:07;7.13;;;0.88;;
68803;SDS011;55787;52.678;13.314;2023-12-22T02:46:34;12.75;;;1.00;;
68803;SDS011;55787;52.678;13.314;2023-12-22T02:49:01;10.63;;;0.97;;
68803;SDS011;55787;52.678;13.314;2023-12-22T02:51:28;12.25;;;1.33;;
68803;SDS011;55787;52.678;13.314;2023-12-22T02:53:54;7.88;;;0.77;;
68803;SDS011;55787;52.678;13.314;2023-12-22T02:56:21;10.38;;;0.90;;
68803;SDS011;55787;52.678;13.314;2023-12-22T02:58:47;8.68;;;0.90;;
68803;SDS011;55787;52.678;13.314;2023-12-22T03:01:14;9.53;;;0.67;;
68803;SDS011;55787;52.678;13.314;2023-12-22T03:03:41;8.82;;;0.75;;
68803;SDS011;55787;52.678;13.314;2023-12-22T03:06:07;9.40;;;0.75;;
68803;SDS011;55787;52.678;13.314;2023-12-22T03:08:34;9.52;;;0.77;;
68803;SDS011;55787;52.678;13.314;2023-12-22T03:11:01;7.68;;;0.77;;
68803;SDS011;55787;52.678;13.314;2023-12-22T03:13:27;6.97;;;0.60;;
68803;SDS011;55787;52.678;13.314;2023-12-22T03:15:54;5.45;;;0.40;;
68803;SDS011;55787;52.678;13.314;2023-12-22T03:18:21;11.98;;;0.85;;
68803;SDS011;55787;52.678;13.314;2023-12-22T03:20:47;7.20;;;0.47;;
68803;SDS011;55787;52.678;13.314;2023-12-22T03:23:14;8.18;;;0.52;;
68803;SDS011;55787;52.678;13.314;2023-12-22T03:25:40;9.07;;;0.80;;
68803;SDS011;55787;52.678;13.314;2023-12-22T03:28:07;5.45;;;0.50;;
68803;SDS011;55787;52.678;13.314;2023-12-22T03:30:34;10.85;;;0.73;;
68803;SDS011;55787;52.678;13.314;2023-12-22T03:33:02;6.95;;;0.60;;
68803;SDS011;55787;52.678;13.314;2023-12-22T03:35:29;6.00;;;0.40;;
68803;SDS011;55787;52.678;13.314;2023-12-22T03:37:56;4.57;;;0.30;;
68803;SDS011;55787;52.678;13.314;2023-12-22T03:40:22;7.65;;;0.55;;
68803;SDS011;55787;52.678;13.314;2023-12-22T03:42:49;8.35;;;0.40;;
68803;SDS011;55787;52.678;13.314;2023-12-22T03:45:15;8.35;;;0.60;;
68803;SDS011;55787;52.678;13.314;2023-12-22T03:47:42;6.75;;;0.45;;
68803;SDS011;55787;52.678;13.314;2023-12-22T03:50:09;12.07;;;0.57;;
68803;SDS011;55787;52.678;13.314;2023-12-22T03:52:35;8.07;;;0.57;;
68803;SDS011;55787;52.678;13.314;2023-12-22T03:55:02;8.13;;;0.55;;
68803;SDS011;55787;52.678;13.314;2023-12-22T03:57:29;7.60;;;0.52;;
68803;SDS011;55787;52.678;13.314;2023-12-22T03:59:55;7.90;;;0.70;;
68803;SDS011;55787;52.678;13.314;2023-12-22T04:02:22;7.70;;;0.73;;
68803;SDS011;55787;52.678;13.314;2023-12-22T04:04:49;6.72;;;0.52;;
68803;SDS011;55787;52.678;13.314;2023-12-22T04:07:15;7.65;;;0.45;;
68803;SDS011;55787;52.678;13.314;2023-12-22T04:09:42;5.05;;;0.20;;
68803;SDS011;55787;52.678;13.314;2023-12-22T04:12:08;4.90;;;0.20;;
68803;SDS011;55787;52.678;13.314;2023-12-22T04:14:35;3.53;;;0.20;;
68803;SDS011;55787;52.678;13.314;2023-12-22T04:17:02;2.67;;;0.40;;
68803;SDS011;55787;52.678;13.314;2023-12-22T04:19:28;3.35;;;0.20;;
68803;SDS011;55787;52.678;13.314;2023-12-22T04:21:55;4.07;;;0.30;;
68803;SDS011;55787;52.678;13.314;2023-12-22T04:24:22;2.72;;;0.10;;
68803;SDS011;55787;52.678;13.314;2023-12-22T04:26:48;1.87;;;0.10;;
68803;SDS011;55787;52.678;13.314;2023-12-22T04:29:15;3.50;;;0.10;;
68803;SDS011;55787;52.678;13.314;2023-12-22T04:31:42;6.03;;;0.28;;
68803;SDS011;55787;52.678;13.314;2023-12-22T04:34:08;5.18;;;0.38;;
68803;SDS011;55787;52.678;13.314;2023-12-22T04:36:35;5.13;;;0.28;;
68803;SDS011;55787;52.678;13.314;2023-12-22T04:39:02;4.00;;;0.20;;
68803;SDS011;55787;52.678;13.314;2023-12-22T04:41:28;3.55;;;0.20;;
68803;SDS011;55787;52.678;13.314;2023-12-22T04:43:55;3.40;;;0.20;;
68803;SDS011;55787;52.678;13.314;2023-12-22T04:46:22;5.53;;;0.20;;
68803;SDS011;55787;52.678;13.314;2023-12-22T04:48:48;5.40;;;0.28;;
68803;SDS011;55787;52.678;13.314;2023-12-22T04:51:15;2.30;;;0.20;;
68803;SDS011;55787;52.678;13.314;2023-12-22T04:53:41;3.65;;;0.20;;
68803;SDS011;55787;52.678;13.314;2023-12-22T04:56:08;3.38;;;0.20;;
68803;SDS011;55787;52.678;13.314;2023-12-22T04:58:35;3.75;;;0.30;;
68803;SDS011;55787;52.678;13.314;2023-12-22T05:01:01;3.22;;;0.20;;
68803;SDS011;55787;52.678;13.314;2023-12-22T05:03:28;3.43;;;0.10;;
68803;SDS011;55787;52.678;13.314;2023-12-22T05:05:55;4.50;;;0.20;;
68803;SDS011;55787;52.678;13.314;2023-12-22T05:08:21;3.20;;;0.10;;
68803;SDS011;55787;52.678;13.314;2023-12-22T05:10:48;4.40;;;0.30;;
68803;SDS011;55787;52.678;13.314;2023-12-22T05:13:15;6.28;;;0.47;;
68803;SDS011;55787;52.678;13.314;2023-12-22T05:15:41;2.50;;;0.23;;
68803;SDS011;55787;52.678;13.314;2023-12-22T05:18:08;2.47;;;0.10;;
68803;SDS011;55787;52.678;13.314;2023-12-22T05:20:34;2.97;;;0.28;;
68803;SDS011;55787;52.678;13.314;2023-12-22T05:23:01;3.53;;;0.20;;
68803;SDS011;55787;52.678;13.314;2023-12-22T05:25:28;4.65;;;0.25;;
68803;SDS011;55787;52.678;13.314;2023-12-22T05:27:55;1.60;;;0.03;;
68803;SDS011;55787;52.678;13.314;2023-12-22T05:30:21;3.65;;;0.10;;
68803;SDS011;55787;52.678;13.314;2023-12-22T05:32:48;3.80;;;0.10;;
68803;SDS011;55787;52.678;13.314;2023-12-22T05:35:15;2.22;;;0.10;;
68803;SDS011;55787;52.678;13.314;2023-12-22T05:37:41;4.32;;;0.35;;
68803;SDS011;55787;52.678;13.314;2023-12-22T05:40:08;7.87;;;0.33;;
68803;SDS011;55787;52.678;13.314;2023-12-22T05:42:36;2.08;;;0.00;;
68803;SDS011;55787;52.678;13.314;2023-12-22T05:45:03;4.22;;;0.08;;
68803;SDS011;55787;52.678;13.314;2023-12-22T05:47:29;4.93;;;0.13;;
68803;SDS011;55787;52.678;13.314;2023-12-22T05:49:56;4.03;;;0.28;;
68803;SDS011;55787;52.678;13.314;2023-12-22T05:52:23;3.60;;;0.13;;
68803;SDS011;55787;52.678;13.314;2023-12-22T05:54:50;4.13;;;0.20;;
68803;SDS011;55787;52.678;13.314;2023-12-22T05:57:16;4.57;;;0.20;;
68803;SDS011;55787;52.678;13.314;2023-12-22T05:59:43;3.55;;;0.20;;
68803;SDS011;55787;52.678;13.314;2023-12-22T06:02:10;4.45;;;0.20;;
68803;SDS011;55787;52.678;13.314;2023-12-22T06:04:36;2.83;;;0.10;;
68803;SDS011;55787;52.678;13.314;2023-12-22T06:07:03;6.32;;;0.32;;
68803;SDS011;55787;52.678;13.314;2023-12-22T06:09:29;5.03;;;0.40;;
68803;SDS011;55787;52.678;13.314;2023-12-22T06:11:56;6.10;;;0.40;;
68803;SDS011;55787;52.678;13.314;2023-12-22T06:14:24;2.72;;;0.20;;
68803;SDS011;55787;52.678;13.314;2023-12-22T06:16:50;5.17;;;0.20;;
68803;SDS011;55787;52.678;13.314;2023-12-22T06:19:17;7.70;;;0.25;;
68803;SDS011;55787;52.678;13.314;2023-12-22T06:21:44;1.85;;;0.10;;
68803;SDS011;55787;52.678;13.314;2023-12-22T06:24:10;4.63;;;0.30;;
68803;SDS011;55787;52.678;13.314;2023-12-22T06:26:37;5.40;;;0.40;;
68803;SDS011;55787;52.678;13.314;2023-12-22T06:29:04;4.17;;;0.27;;
68803;SDS011;55787;52.678;13.314;2023-12-22T06:31:30;3.42;;;0.20;;
68803;SDS011;55787;52.678;13.314;2023-12-22T06:33:57;4.40;;;0.35;;
68803;SDS011;55787;52.678;13.314;2023-12-22T06:36:28;6.07;;;0.20;;
68803;SDS011;55787;52.678;13.314;2023-12-22T06:38:56;3.35;;;0.20;;
68803;SDS011;55787;52.678;13.314;2023-12-22T06:41:27;4.60;;;0.20;;
68803;SDS011;55787;52.678;13.314;2023-12-22T06:43:56;4.43;;;0.25;;
68803;SDS011;55787;52.678;13.314;2023-12-22T06:46:24;3.03;;;0.45;;
68803;SDS011;55787;52.678;13.314;2023-12-22T06:48:54;4.80;;;0.20;;
68803;SDS011;55787;52.678;13.314;2023-12-22T06:51:29;1.75;;;0.10;;
68803;SDS011;55787;52.678;13.314;2023-12-22T06:53:57;4.30;;;0.30;;
68803;SDS011;55787;52.678;13.314;2023-12-22T06:56:28;2.55;;;0.10;;
68803;SDS011;55787;52.678;13.314;2023-12-22T06:58:57;1.65;;;0.05;;
68803;SDS011;55787;52.678;13.314;2023-12-22T07:01:28;3.25;;;0.20;;
68803;SDS011;55787;52.678;13.314;2023-12-22T07:03:56;3.53;;;0.10;;
68803;SDS011;55787;52.678;13.314;2023-12-22T07:06:23;2.10;;;0.20;;
68803;SDS011;55787;52.678;13.314;2023-12-22T07:11:40;2.97;;;0.10;;
68803;SDS011;55787;52.678;13.314;2023-12-22T07:14:07;3.13;;;0.10;;
68803;SDS011;55787;52.678;13.314;2023-12-22T07:16:35;3.33;;;0.15;;
68803;SDS011;55787;52.678;13.314;2023-12-22T07:19:02;4.27;;;0.30;;
68803;SDS011;55787;52.678;13.314;2023-12-22T07:21:30;3.55;;;0.15;;
68803;SDS011;55787;52.678;13.314;2023-12-22T07:23:57;3.78;;;0.20;;
68803;SDS011;55787;52.678;13.314;2023-12-22T07:26:27;6.55;;;0.40;;
68803;SDS011;55787;52.678;13.314;2023-12-22T07:28:54;2.70;;;0.20;;
68803;SDS011;55787;52.678;13.314;2023-12-22T07:31:21;8.90;;;0.60;;
68803;SDS011;55787;52.678;13.314;2023-12-22T07:33:47;3.03;;;0.25;;
68803;SDS011;55787;52.678;13.314;2023-12-22T07:36:14;5.90;;;0.38;;
68803;SDS011;55787;52.678;13.314;2023-12-22T07:38:41;5.60;;;0.35;;
68803;SDS011;55787;52.678;13.314;2023-12-22T07:41:07;5.88;;;0.40;;
68803;SDS011;55787;52.678;13.314;2023-12-22T07:43:37;2.20;;;0.20;;
68803;SDS011;55787;52.678;13.314;2023-12-22T07:46:03;4.68;;;0.25;;
68803;SDS011;55787;52.678;13.314;2023-12-22T07:48:30;10.40;;;0.50;;
68803;SDS011;55787;52.678;13.314;2023-12-22T07:50:56;5.45;;;0.50;;
68803;SDS011;55787;52.678;13.314;2023-12-22T07:53:23;6.25;;;0.30;;
68803;SDS011;55787;52.678;13.314;2023-12-22T07:55:50;6.33;;;0.70;;
68803;SDS011;55787;52.678;13.314;2023-12-22T07:58:17;7.78;;;0.40;;
68803;SDS011;55787;52.678;13.314;2023-12-22T08:00:45;5.65;;;0.40;;
68803;SDS011;55787;52.678;13.314;2023-12-22T08:03:12;5.38;;;0.30;;
68803;SDS011;55787;52.678;13.314;2023-12-22T08:05:39;3.72;;;0.25;;
68803;SDS011;55787;52.678;13.314;2023-12-22T08:08:06;3.70;;;0.40;;
68803;SDS011;55787;52.678;13.314;2023-12-22T08:10:32;5.35;;;0.20;;
68803;SDS011;55787;52.678;13.314;2023-12-22T08:12:59;4.80;;;0.43;;
68803;SDS011;55787;52.678;13.314;2023-12-22T08:15:26;6.07;;;0.40;;
68803;SDS011;55787;52.678;13.314;2023-12-22T08:18:02;4.65;;;0.50;;
68803;SDS011;55787;52.678;13.314;2023-12-22T08:20:29;5.50;;;0.20;;
68803;SDS011;55787;52.678;13.314;2023-12-22T08:23:02;9.18;;;0.47;;
68803;SDS011;55787;52.678;13.314;2023-12-22T08:25:35;4.53;;;0.20;;
68803;SDS011;55787;52.678;13.314;2023-12-22T08:28:02;5.85;;;0.32;;
68803;SDS011;55787;52.678;13.314;2023-12-22T08:30:29;4.68;;;0.20;;
68803;SDS011;55787;52.678;13.314;2023-12-22T08:32:55;6.80;;;0.40;;
68803;SDS011;55787;52.678;13.314;2023-12-22T08:35:22;3.78;;;0.25;;
68803;SDS011;55787;52.678;13.314;2023-12-22T08:37:49;7.78;;;0.50;;
68803;SDS011;55787;52.678;13.314;2023-12-22T08:40:16;6.65;;;0.30;;
68803;SDS011;55787;52.678;13.314;2023-12-22T08:42:42;4.65;;;0.20;;
68803;SDS011;55787;52.678;13.314;2023-12-22T08:45:09;6.90;;;0.40;;
68803;SDS011;55787;52.678;13.314;2023-12-22T08:47:35;10.45;;;0.75;;
68803;SDS011;55787;52.678;13.314;2023-12-22T08:50:02;2.83;;;0.20;;
68803;SDS011;55787;52.678;13.314;2023-12-22T08:52:31;6.70;;;0.50;;
68803;SDS011;55787;52.678;13.314;2023-12-22T08:54:57;9.85;;;0.63;;
68803;SDS011;55787;52.678;13.314;2023-12-22T08:57:24;9.20;;;0.60;;
68803;SDS011;55787;52.678;13.314;2023-12-22T08:59:51;3.92;;;0.20;;
68803;SDS011;55787;52.678;13.314;2023-12-22T09:02:17;4.45;;;0.20;;
68803;SDS011;55787;52.678;13.314;2023-12-22T09:04:44;10.90;;;0.60;;
68803;SDS011;55787;52.678;13.314;2023-12-22T09:07:11;8.80;;;0.40;;
68803;SDS011;55787;52.678;13.314;2023-12-22T09:09:37;6.97;;;0.40;;
68803;SDS011;55787;52.678;13.314;2023-12-22T09:12:04;8.98;;;0.82;;
68803;SDS011;55787;52.678;13.314;2023-12-22T09:14:31;4.68;;;0.22;;
68803;SDS011;55787;52.678;13.314;2023-12-22T09:16:57;5.35;;;0.50;;
68803;SDS011;55787;52.678;13.314;2023-12-22T09:19:24;8.52;;;0.25;;
68803;SDS011;55787;52.678;13.314;2023-12-22T09:21:51;5.40;;;0.20;;
68803;SDS011;55787;52.678;13.314;2023-12-22T09:24:18;5.70;;;0.40;;
68803;SDS011;55787;52.678;13.314;2023-12-22T09:26:44;5.28;;;0.43;;
68803;SDS011;55787;52.678;13.314;2023-12-22T09:29:11;6.32;;;0.47;;
68803;SDS011;55787;52.678;13.314;2023-12-22T09:31:37;10.35;;;0.60;;
68803;SDS011;55787;52.678;13.314;2023-12-22T09:34:04;7.00;;;0.50;;
68803;SDS011;55787;52.678;13.314;2023-12-22T09:36:31;8.38;;;0.40;;
68803;SDS011;55787;52.678;13.314;2023-12-22T09:38:58;7.05;;;0.47;;
68803;SDS011;55787;52.678;13.314;2023-12-22T09:41:25;7.60;;;0.65;;
68803;SDS011;55787;52.678;13.314;2023-12-22T09:43:52;8.00;;;0.60;;
68803;SDS011;55787;52.678;13.314;2023-12-22T09:46:22;9.27;;;0.50;;
68803;SDS011;55787;52.678;13.314;2023-12-22T09:48:50;7.18;;;0.30;;
68803;SDS011;55787;52.678;13.314;2023-12-22T09:51:18;6.53;;;0.55;;
68803;SDS011;55787;52.678;13.314;2023-12-22T09:53:45;8.13;;;0.60;;
68803;SDS011;55787;52.678;13.314;2023-12-22T09:56:13;5.45;;;0.57;;
68803;SDS011;55787;52.678;13.314;2023-12-22T09:58:41;6.10;;;0.53;;
68803;SDS011;55787;52.678;13.314;2023-12-22T10:01:08;8.40;;;0.52;;
68803;SDS011;55787;52.678;13.314;2023-12-22T10:03:35;7.68;;;0.55;;
68803;SDS011;55787;52.678;13.314;2023-12-22T10:06:03;6.10;;;0.32;;
68803;SDS011;55787;52.678;13.314;2023-12-22T10:08:30;8.27;;;0.50;;
68803;SDS011;55787;52.678;13.314;2023-12-22T10:10:57;10.03;;;0.60;;
68803;SDS011;55787;52.678;13.314;2023-12-22T10:13:24;9.55;;;0.88;;
68803;SDS011;55787;52.678;13.314;2023-12-22T10:15:54;7.85;;;0.50;;
68803;SDS011;55787;52.678;13.314;2023-12-22T10:18:22;8.90;;;0.82;;
68803;SDS011;55787;52.678;13.314;2023-12-22T10:20:48;8.25;;;0.43;;
68803;SDS011;55787;52.678;13.314;2023-12-22T10:23:15;11.83;;;1.00;;
68803;SDS011;55787;52.678;13.314;2023-12-22T10:25:42;6.05;;;0.47;;
68803;SDS011;55787;52.678;13.314;2023-12-22T10:28:12;12.20;;;0.80;;
68803;SDS011;55787;52.678;13.314;2023-12-22T10:30:40;11.48;;;0.80;;
68803;SDS011;55787;52.678;13.314;2023-12-22T10:33:06;5.97;;;0.22;;
68803;SDS011;55787;52.678;13.314;2023-12-22T10:35:33;9.00;;;0.70;;
68803;SDS011;55787;52.678;13.314;2023-12-22T10:38:00;9.55;;;0.60;;
68803;SDS011;55787;52.678;13.314;2023-12-22T10:40:29;12.35;;;0.82;;
68803;SDS011;55787;52.678;13.314;2023-12-22T10:42:56;9.27;;;0.82;;
68803;SDS011;55787;52.678;13.314;2023-12-22T10:45:25;7.85;;;0.68;;
68803;SDS011;55787;52.678;13.314;2023-12-22T10:47:51;7.27;;;0.80;;
68803;SDS011;55787;52.678;13.314;2023-12-22T10:50:19;9.23;;;0.70;;
68803;SDS011;55787;52.678;13.314;2023-12-22T10:52:49;8.70;;;0.60;;
68803;SDS011;55787;52.678;13.314;2023-12-22T10:55:20;9.20;;;0.82;;
68803;SDS011;55787;52.678;13.314;2023-12-22T10:57:47;5.43;;;0.50;;
68803;SDS011;55787;52.678;13.314;2023-12-22T11:00:17;6.17;;;0.50;;
68803;SDS011;55787;52.678;13.314;2023-12-22T11:02:47;6.28;;;0.45;;
68803;SDS011;55787;52.678;13.314;2023-12-22T11:05:17;10.98;;;0.70;;
68803;SDS011;55787;52.678;13.314;2023-12-22T11:07:48;11.93;;;0.70;;
68803;SDS011;55787;52.678;13.314;2023-12-22T11:10:18;9.25;;;0.52;;
68803;SDS011;55787;52.678;13.314;2023-12-22T11:12:46;9.00;;;0.87;;
68803;SDS011;55787;52.678;13.314;2023-12-22T11:15:14;7.85;;;0.70;;
68803;SDS011;55787;52.678;13.314;2023-12-22T11:17:42;8.88;;;0.63;;
68803;SDS011;55787;52.678;13.314;2023-12-22T11:20:10;5.63;;;0.43;;
68803;SDS011;55787;52.678;13.314;2023-12-22T11:22:38;7.60;;;0.60;;
68803;SDS011;55787;52.678;13.314;2023-12-22T11:25:06;8.97;;;1.13;;
68803;SDS011;55787;52.678;13.314;2023-12-22T11:27:34;11.05;;;0.50;;
68803;SDS011;55787;52.678;13.314;2023-12-22T11:30:04;10.05;;;0.90;;
68803;SDS011;55787;52.678;13.314;2023-12-22T11:32:34;9.18;;;0.68;;
68803;SDS011;55787;52.678;13.314;2023-12-22T11:35:02;9.93;;;0.75;;
68803;SDS011;55787;52.678;13.314;2023-12-22T11:37:31;9.73;;;0.57;;
68803;SDS011;55787;52.678;13.314;2023-12-22T11:40:00;7.22;;;0.57;;
68803;SDS011;55787;52.678;13.314;2023-12-22T11:42:30;8.98;;;0.68;;
68803;SDS011;55787;52.678;13.314;2023-12-22T11:45:00;7.00;;;0.60;;
68803;SDS011;55787;52.678;13.314;2023-12-22T11:47:27;7.32;;;0.40;;
68803;SDS011;55787;52.678;13.314;2023-12-22T11:49:54;7.93;;;0.50;;
68803;SDS011;55787;52.678;13.314;2023-12-22T11:52:25;6.30;;;0.50;;
68803;SDS011;55787;52.678;13.314;2023-12-22T11:54:56;6.03;;;0.35;;
68803;SDS011;55787;52.678;13.314;2023-12-22T11:57:33;14.00;;;0.77;;
68803;SDS011;55787;52.678;13.314;2023-12-22T12:00:02;10.98;;;0.40;;
68803;SDS011;55787;52.678;13.314;2023-12-22T12:02:34;10.03;;;0.60;;
68803;SDS011;55787;52.678;13.314;2023-12-22T12:05:02;10.18;;;0.50;;
68803;SDS011;55787;52.678;13.314;2023-12-22T12:07:45;10.45;;;0.50;;
68803;SDS011;55787;52.678;13.314;2023-12-22T12:15:35;6.37;;;0.40;;
68803;SDS011;55787;52.678;13.314;2023-12-22T12:18:03;9.65;;;0.63;;
68803;SDS011;55787;52.678;13.314;2023-12-22T12:20:31;7.40;;;0.20;;
68803;SDS011;55787;52.678;13.314;2023-12-22T12:22:58;9.63;;;0.77;;
68803;SDS011;55787;52.678;13.314;2023-12-22T12:25:28;8.20;;;0.30;;
68803;SDS011;55787;52.678;13.314;2023-12-22T12:30:30;4.82;;;0.65;;
68803;SDS011;55787;52.678;13.314;2023-12-22T12:33:07;9.93;;;0.63;;
68803;SDS011;55787;52.678;13.314;2023-12-22T12:35:35;2.78;;;0.13;;
68803;SDS011;55787;52.678;13.314;2023-12-22T12:38:09;13.93;;;1.13;;
68803;SDS011;55787;52.678;13.314;2023-12-22T12:40:37;10.07;;;0.70;;
68803;SDS011;55787;52.678;13.314;2023-12-22T12:43:06;5.57;;;0.47;;
68803;SDS011;55787;52.678;13.314;2023-12-22T12:45:33;7.80;;;0.90;;
68803;SDS011;55787;52.678;13.314;2023-12-22T12:48:01;4.28;;;0.47;;
68803;SDS011;55787;52.678;13.314;2023-12-22T12:50:30;8.52;;;0.60;;
68803;SDS011;55787;52.678;13.314;2023-12-22T12:53:00;7.93;;;0.50;;
68803;SDS011;55787;52.678;13.314;2023-12-22T12:55:27;9.35;;;0.50;;
68803;SDS011;55787;52.678;13.314;2023-12-22T12:57:55;9.05;;;0.65;;
68803;SDS011;55787;52.678;13.314;2023-12-22T13:00:32;8.48;;;0.50;;
68803;SDS011;55787;52.678;13.314;2023-12-22T13:03:02;13.43;;;0.70;;
68803;SDS011;55787;52.678;13.314;2023-12-22T13:05:31;7.57;;;0.40;;
68803;SDS011;55787;52.678;13.314;2023-12-22T13:08:09;6.25;;;0.40;;
68803;SDS011;55787;52.678;13.314;2023-12-22T13:10:37;9.40;;;0.80;;
68803;SDS011;55787;52.678;13.314;2023-12-22T13:13:05;6.88;;;0.30;;
68803;SDS011;55787;52.678;13.314;2023-12-22T13:15:32;6.50;;;0.35;;
68803;SDS011;55787;52.678;13.314;2023-12-22T13:17:58;6.60;;;0.40;;
68803;SDS011;55787;52.678;13.314;2023-12-22T13:20:25;7.15;;;0.28;;
68803;SDS011;55787;52.678;13.314;2023-12-22T13:22:53;6.78;;;0.82;;
68803;SDS011;55787;52.678;13.314;2023-12-22T13:25:21;9.15;;;0.50;;
68803;SDS011;55787;52.678;13.314;2023-12-22T13:27:50;11.48;;;0.88;;
68803;SDS011;55787;52.678;13.314;2023-12-22T13:30:34;8.27;;;0.80;;
68803;SDS011;55787;52.678;13.314;2023-12-22T13:33:07;5.10;;;0.30;;
68803;SDS011;55787;52.678;13.314;2023-12-22T13:35:34;7.88;;;0.50;;
68803;SDS011;55787;52.678;13.314;2023-12-22T13:38:07;9.43;;;0.60;;
68803;SDS011;55787;52.678;13.314;2023-12-22T13:40:35;7.70;;;0.40;;
68803;SDS011;55787;52.678;13.314;2023-12-22T13:43:02;9.87;;;1.03;;
68803;SDS011;55787;52.678;13.314;2023-12-22T13:45:29;5.43;;;0.52;;
68803;SDS011;55787;52.678;13.314;2023-12-22T13:47:57;6.40;;;0.40;;
68803;SDS011;55787;52.678;13.314;2023-12-22T13:50:25;7.75;;;0.60;;
68803;SDS011;55787;52.678;13.314;2023-12-22T13:52:51;6.63;;;0.47;;
68803;SDS011;55787;52.678;13.314;2023-12-22T13:55:20;7.00;;;0.50;;
68803;SDS011;55787;52.678;13.314;2023-12-22T13:57:49;8.65;;;0.50;;
68803;SDS011;55787;52.678;13.314;2023-12-22T14:00:26;6.57;;;0.32;;
68803;SDS011;55787;52.678;13.314;2023-12-22T14:02:54;8.50;;;0.43;;
68803;SDS011;55787;52.678;13.314;2023-12-22T14:05:22;5.55;;;0.40;;
68803;SDS011;55787;52.678;13.314;2023-12-22T14:07:49;7.53;;;0.60;;
68803;SDS011;55787;52.678;13.314;2023-12-22T14:10:16;10.55;;;0.70;;
68803;SDS011;55787;52.678;13.314;2023-12-22T14:12:43;4.57;;;0.40;;
68803;SDS011;55787;52.678;13.314;2023-12-22T14:15:10;9.88;;;0.60;;
68803;SDS011;55787;52.678;13.314;2023-12-22T14:17:37;7.10;;;0.52;;
68803;SDS011;55787;52.678;13.314;2023-12-22T14:20:04;9.53;;;0.40;;
68803;SDS011;55787;52.678;13.314;2023-12-22T14:22:33;5.10;;;0.40;;
68803;SDS011;55787;52.678;13.314;2023-12-22T14:25:00;6.22;;;0.63;;
68803;SDS011;55787;52.678;13.314;2023-12-22T14:27:27;6.13;;;0.32;;
68803;SDS011;55787;52.678;13.314;2023-12-22T14:29:53;7.00;;;0.75;;
68803;SDS011;55787;52.678;13.314;2023-12-22T14:32:20;6.73;;;0.60;;
68803;SDS011;55787;52.678;13.314;2023-12-22T14:34:47;7.18;;;0.57;;
68803;SDS011;55787;52.678;13.314;2023-12-22T14:37:14;9.88;;;0.57;;
68803;SDS011;55787;52.678;13.314;2023-12-22T14:39:42;9.07;;;0.73;;
68803;SDS011;55787;52.678;13.314;2023-12-22T14:42:09;6.38;;;0.40;;
68803;SDS011;55787;52.678;13.314;2023-12-22T14:44:36;8.70;;;0.50;;
68803;SDS011;55787;52.678;13.314;2023-12-22T14:47:05;7.88;;;0.52;;